Time;durP1;ratioP1;P1;durP2;ratioP2;P2;SDS_P1;SDS_P2;PMS_P1;PMS_P2;Temp;Humidity;BMP_temperature;BMP_pressure;BME280_temperature;BME280_humidity;BME280_pressure;Samples;Min_cycle;Max_cycle;Signal;HPM_P1;HPM_P2
2022/08/12 00:45:14;;;;;;;5.55;1.75;;;;;;;30.68;25.83;101216.59;5035521;28;20040;-65
2022/08/12 00:47:43;;;;;;;3.90;1.60;;;;;;;30.65;25.77;101208.69;5035181;28;20083;-58
2022/08/12 00:50:17;;;;;;;6.00;2.20;;;;;;;30.46;26.24;101208.88;5017695;28;20383;-62
2022/08/12 00:52:48;;;;;;;4.85;1.63;;;;;;;30.52;26.12;101203.50;5035287;28;20457;-46
2022/08/12 00:55:18;;;;;;;7.00;2.13;;;;;;;30.55;26.22;101207.91;5035073;28;20476;-55
2022/08/12 00:57:49;;;;;;;10.98;2.35;;;;;;;30.39;26.40;101201.88;5017732;28;20026;-61
2022/08/12 01:00:21;;;;;;;5.07;2.08;;;;;;;30.33;26.46;101208.09;5034909;28;20400;-45
2022/08/12 01:02:52;;;;;;;5.85;1.90;;;;;;;30.42;26.15;101204.50;5034795;28;20040;-45
2022/08/12 01:11:40;;;;;;;5.40;2.40;;;;;;;30.33;26.22;101194.88;5023783;28;20042;-45
2022/08/12 01:13:49;;;;;;;8.63;2.63;;;;;;;30.35;26.12;101202.81;5027991;28;20503;-46
2022/08/12 01:16:21;;;;;;;9.13;2.40;;;;;;;30.35;26.10;101193.09;5035095;28;20106;-45
2022/08/12 01:18:51;;;;;;;8.80;2.30;;;;;;;30.38;26.05;101201.00;5034284;28;20467;-45
2022/08/12 01:21:27;;;;;;;4.38;1.70;;;;;;;30.30;26.36;101203.72;5034639;28;20361;-56
2022/08/12 01:24:07;;;;;;;11.60;1.83;;;;;;;30.16;26.46;101209.16;5034711;28;20486;-49
2022/08/12 01:26:38;;;;;;;7.55;1.85;;;;;;;30.14;26.51;101205.63;5034168;28;20033;-48
2022/08/12 01:29:08;;;;;;;7.75;1.60;;;;;;;30.04;26.38;101203.97;5034356;28;20064;-60
2022/08/12 01:31:38;;;;;;;4.25;1.85;;;;;;;29.94;26.74;101200.50;5016450;28;20120;-45
2022/08/12 01:34:13;;;;;;;6.82;1.92;;;;;;;29.97;26.61;101199.63;5017002;28;20045;-49
2022/08/12 01:36:44;;;;;;;6.45;1.65;;;;;;;30.09;26.44;101198.63;5034521;28;20459;-65
2022/08/12 01:39:16;;;;;;;4.63;2.08;;;;;;;30.07;26.44;101200.41;5016924;28;20030;-49
2022/08/12 01:41:47;;;;;;;3.22;1.83;;;;;;;30.05;26.63;101203.09;5034043;28;20056;-45
2022/08/12 01:44:16;;;;;;;5.45;1.70;;;;;;;29.92;26.61;101201.41;5034495;28;20059;-45
2022/08/12 01:47:04;;;;;;;7.10;2.22;;;;;;;30.01;26.56;101202.25;5016244;28;20021;-47
2022/08/12 01:50:10;;;;;;;5.88;1.70;;;;;;;30.07;26.33;101198.66;5034019;28;20559;-45
2022/08/12 01:52:53;;;;;;;7.30;2.20;;;;;;;29.92;26.52;101204.94;5024707;28;20095;-45
2022/08/12 01:55:25;;;;;;;4.78;2.20;;;;;;;29.94;26.75;101197.84;5033787;28;20025;-45
2022/08/12 01:58:04;;;;;;;5.75;1.90;;;;;;;29.85;26.74;101193.53;5033670;28;20029;-44
2022/08/12 02:00:47;;;;;;;6.05;1.92;;;;;;;29.86;26.69;101202.34;5016775;28;20021;-46
2022/08/12 02:13:32;;;;;;;7.47;2.00;;;;;;;29.70;26.82;101193.66;5011374;28;20121;-48
2022/08/12 02:16:08;;;;;;;5.05;1.92;;;;;;;29.73;26.77;101198.91;5012598;28;20175;-64
2022/08/12 02:18:56;;;;;;;7.20;2.30;;;;;;;29.68;26.90;101192.78;5015096;28;20026;-45
2022/08/12 02:21:39;;;;;;;9.98;2.30;;;;;;;29.72;26.71;101197.16;5033655;28;20112;-45
2022/08/12 02:24:11;;;;;;;9.00;2.17;;;;;;;29.46;26.93;101184.13;5015911;28;20041;-47
2022/08/12 02:26:40;;;;;;;4.00;1.98;;;;;;;29.49;27.15;101192.91;5016129;28;20030;-49
2022/08/12 02:29:12;;;;;;;6.05;1.90;;;;;;;29.47;27.20;101199.09;5015690;28;20044;-48
2022/08/12 02:31:43;;;;;;;5.93;1.88;;;;;;;29.43;27.02;101192.97;5033083;28;20392;-48
2022/08/12 02:34:11;;;;;;;6.45;1.88;;;;;;;29.50;27.05;101196.44;5032920;28;20112;-65
2022/08/12 02:36:41;;;;;;;3.65;1.88;;;;;;;29.61;26.93;101193.75;5015729;28;20026;-45
2022/08/12 02:39:10;;;;;;;5.40;2.22;;;;;;;29.58;26.79;101193.75;4999704;28;20060;-48
2022/08/12 02:41:43;;;;;;;7.53;2.40;;;;;;;29.52;26.92;101192.91;5033739;28;20069;-45
2022/08/12 02:44:13;;;;;;;6.68;2.15;;;;;;;29.48;27.20;101191.16;5015858;28;20087;-65
2022/08/12 02:46:49;;;;;;;5.50;2.10;;;;;;;29.37;27.28;101204.44;5015844;28;20033;-48
2022/08/12 02:49:22;;;;;;;4.97;2.30;;;;;;;29.46;27.18;101200.00;5016014;28;20044;-48
2022/08/12 02:51:50;;;;;;;6.72;2.42;;;;;;;29.49;26.97;101197.34;5032708;28;20056;-47
2022/08/12 02:54:19;;;;;;;3.85;2.22;;;;;;;29.37;27.24;101198.28;5015174;28;20030;-64
2022/08/12 02:56:48;;;;;;;5.80;2.35;;;;;;;29.36;27.06;101201.81;5032918;28;20033;-46
2022/08/12 02:59:17;;;;;;;6.85;2.47;;;;;;;29.38;27.18;101200.03;5015592;28;20488;-47
2022/08/12 03:01:52;;;;;;;5.25;2.22;;;;;;;29.35;27.09;101195.66;4998869;28;20036;-44
2022/08/12 03:04:26;;;;;;;3.72;2.13;;;;;;;29.22;27.12;101189.53;5032816;28;20029;-65
2022/08/12 03:07:02;;;;;;;3.13;2.03;;;;;;;29.30;27.27;101193.88;5015129;28;20050;-46
2022/08/12 03:09:33;;;;;;;8.80;2.20;;;;;;;29.02;27.61;101196.69;5015595;28;20395;-48
2022/08/12 03:12:04;;;;;;;8.93;2.40;;;;;;;29.13;27.40;101194.00;5032856;28;20061;-46
2022/08/12 03:14:34;;;;;;;4.55;2.25;;;;;;;29.07;27.33;101189.63;5032798;28;20446;-46
2022/08/12 03:17:14;;;;;;;13.77;2.70;;;;;;;28.96;27.78;101193.16;5032737;28;20038;-45
2022/08/12 03:19:44;;;;;;;6.38;2.25;;;;;;;29.15;27.55;101184.28;5015571;28;20556;-59
2022/08/12 03:22:13;;;;;;;5.40;2.10;;;;;;;29.06;27.63;101190.50;5015219;28;20391;-45
2022/08/12 03:24:44;;;;;;;7.43;2.80;;;;;;;29.17;27.25;101188.66;5032490;28;20176;-57
2022/08/12 03:27:14;;;;;;;4.32;1.77;;;;;;;29.20;27.41;101191.31;5015300;28;20044;-44
2022/08/12 03:29:48;;;;;;;5.35;2.45;;;;;;;29.01;27.69;101201.09;5034117;28;20053;-64
2022/08/12 03:32:19;;;;;;;11.70;2.50;;;;;;;29.02;27.53;101194.94;5036739;28;20399;-44
2022/08/12 03:34:49;;;;;;;6.80;2.55;;;;;;;28.97;27.72;101186.16;5018818;28;20064;-58
2022/08/12 03:37:20;;;;;;;7.97;2.55;;;;;;;29.03;27.56;101188.78;5036712;28;20104;-44
2022/08/12 03:39:49;;;;;;;4.18;2.45;;;;;;;28.92;27.78;101182.63;5019237;28;20022;-46
2022/08/12 03:42:39;;;;;;;5.60;2.35;;;;;;;28.88;27.67;101181.78;5036226;28;20033;-44
2022/08/12 04:01:59;;;;;;;7.60;2.90;;;;;;;28.91;27.45;101181.78;5031681;28;20432;-46
2022/08/12 04:04:32;;;;;;;7.75;2.92;;;;;;;28.85;27.71;101181.78;5035975;28;20030;-44
2022/08/12 04:07:03;;;;;;;7.75;2.83;;;;;;;28.82;27.77;101181.78;5035476;28;20046;-46
2022/08/12 04:09:31;;;;;;;6.00;3.13;;;;;;;28.80;27.83;101181.81;5035972;28;20527;-49
2022/08/12 04:14:47;;;;;;;6.53;3.08;;;;;;;28.83;27.84;101180.06;5032171;28;20041;-52
2022/08/12 04:17:16;;;;;;;4.70;2.67;;;;;;;28.76;27.63;101174.78;5018455;28;20025;-45
2022/08/12 04:19:46;;;;;;;5.45;2.75;;;;;;;28.69;27.91;101183.59;5018419;28;20022;-49
2022/08/12 04:22:15;;;;;;;6.28;2.58;;;;;;;28.65;27.95;101174.78;5035729;28;20538;-45
2022/08/12 04:24:45;;;;;;;5.68;3.10;;;;;;;28.68;28.27;101175.66;5035287;28;20491;-46
2022/08/12 04:27:14;;;;;;;9.82;3.28;;;;;;;28.74;27.81;101171.28;5018067;28;20108;-46
2022/08/12 04:29:43;;;;;;;4.68;3.05;;;;;;;28.75;27.89;101169.53;5035893;28;20025;-47
2022/08/12 04:32:11;;;;;;;7.70;2.90;;;;;;;28.61;28.36;101157.22;5035646;28;20036;-44
2022/08/12 04:34:40;;;;;;;6.72;3.08;;;;;;;28.64;28.06;101165.09;5017975;28;20030;-44
2022/08/12 04:37:08;;;;;;;5.30;3.05;;;;;;;28.65;28.00;101158.09;5018020;28;20096;-64
2022/08/12 04:39:38;;;;;;;7.90;2.85;;;;;;;28.64;27.78;101159.84;5035634;28;20026;-45
2022/08/12 04:42:06;;;;;;;5.90;2.80;;;;;;;28.68;27.71;101159.81;5016839;28;20022;-45
2022/08/12 04:44:35;;;;;;;8.45;3.03;;;;;;;28.62;27.91;101169.53;5035449;28;20036;-64
2022/08/12 04:47:04;;;;;;;6.15;2.45;;;;;;;28.57;27.74;101158.13;5035015;28;20100;-54
2022/08/12 04:49:33;;;;;;;10.23;3.13;;;;;;;28.53;27.91;101151.09;5035116;28;20140;-45
2022/08/12 04:52:02;;;;;;;6.38;3.22;;;;;;;28.40;28.47;101154.66;5035059;28;20104;-44
2022/08/12 04:54:32;;;;;;;8.45;2.95;;;;;;;28.45;28.15;101161.66;5017596;28;20029;-45
2022/08/12 04:57:01;;;;;;;7.72;3.42;;;;;;;28.50;27.96;101157.25;5035401;28;20032;-46
2022/08/12 04:59:30;;;;;;;7.72;3.00;;;;;;;28.31;28.24;101158.19;5017599;28;20075;-64
2022/08/12 05:01:59;;;;;;;5.80;3.13;;;;;;;28.33;28.24;101157.28;5035140;28;20052;-44
2022/08/12 05:04:28;;;;;;;8.05;3.60;;;;;;;28.39;28.18;101164.31;5034942;28;20037;-45
2022/08/12 05:06:56;;;;;;;4.88;3.22;;;;;;;28.31;28.31;101166.09;5034968;28;20049;-44
2022/08/12 05:09:25;;;;;;;10.00;3.60;;;;;;;28.30;28.16;101170.47;5034703;28;20029;-44
2022/08/12 05:11:54;;;;;;;8.85;3.58;;;;;;;28.28;28.29;101166.09;5035286;28;20032;-44
2022/08/12 05:14:22;;;;;;;7.25;3.28;;;;;;;28.29;28.27;101170.50;5035020;28;20094;-51
2022/08/12 05:16:52;;;;;;;12.20;4.47;;;;;;;28.31;28.32;101166.09;5034531;28;20413;-44
2022/08/12 05:19:20;;;;;;;7.82;3.30;;;;;;;28.38;28.35;101165.19;5034499;28;20060;-46
2022/08/12 05:21:49;;;;;;;8.52;3.20;;;;;;;28.30;28.24;101170.47;5034512;28;20029;-44
2022/08/12 05:24:18;;;;;;;6.30;3.65;;;;;;;28.40;28.18;101170.47;5034444;28;20032;-45
2022/08/12 05:26:46;;;;;;;7.22;3.45;;;;;;;28.31;28.01;101172.25;5034314;28;20022;-51
2022/08/12 05:29:15;;;;;;;13.10;3.97;;;;;;;28.30;28.22;101170.47;5034165;28;20026;-46
2022/08/12 05:31:43;;;;;;;19.20;4.50;;;;;;;28.25;28.27;101172.28;5034410;28;20033;-44
2022/08/12 05:34:13;;;;;;;16.70;4.25;;;;;;;28.29;28.34;101173.13;5034447;28;20037;-64
2022/08/12 05:36:43;;;;;;;11.57;3.97;;;;;;;28.19;28.60;101172.28;5034424;28;20021;-45
2022/08/12 05:39:12;;;;;;;10.63;4.30;;;;;;;28.16;28.45;101178.44;5034704;28;20060;-64
2022/08/12 05:41:40;;;;;;;8.02;4.35;;;;;;;28.18;28.54;101173.16;5034634;28;20029;-45
2022/08/12 05:44:12;;;;;;;10.20;4.40;;;;;;;28.28;28.30;101167.00;5033975;28;20029;-47
2022/08/12 05:46:40;;;;;;;7.78;3.70;;;;;;;28.20;28.55;101174.03;5034316;28;20025;-64
2022/08/12 05:49:09;;;;;;;7.68;4.30;;;;;;;28.15;28.68;101175.78;5034199;28;20029;-49
2022/08/12 05:51:38;;;;;;;9.35;4.07;;;;;;;28.16;28.66;101172.28;5033828;28;20033;-45
2022/08/12 05:54:07;;;;;;;10.13;4.20;;;;;;;28.24;28.54;101177.53;5103981;22;20057;-55
2022/08/12 05:56:36;;;;;;;12.27;4.05;;;;;;;28.27;28.48;101180.19;5033935;28;20399;-62
2022/08/12 05:59:06;;;;;;;8.60;4.80;;;;;;;28.20;28.62;101168.75;5034363;28;20365;-44
2022/08/12 06:01:35;;;;;;;8.00;4.25;;;;;;;28.26;28.57;101183.69;5033587;28;20029;-51
2022/08/12 06:04:04;;;;;;;11.27;5.03;;;;;;;28.27;28.71;101185.44;5033934;28;20029;-45
2022/08/12 06:06:40;;;;;;;18.27;5.53;;;;;;;28.34;28.70;101182.78;5033830;28;20079;-44
2022/08/12 06:09:10;;;;;;;8.73;5.00;;;;;;;28.44;28.43;101183.66;5033855;28;20025;-46
2022/08/12 06:11:40;;;;;;;16.75;5.30;;;;;;;28.45;28.46;101179.28;5033749;28;20113;-46
2022/08/12 06:14:09;;;;;;;14.82;4.82;;;;;;;28.32;28.92;101188.97;5033571;28;20503;-45
2022/08/12 06:16:38;;;;;;;16.02;4.47;;;;;;;28.42;28.89;101187.19;5015211;28;20043;-51
2022/08/12 06:19:07;;;;;;;13.30;4.60;;;;;;;28.42;28.88;101185.41;5033414;28;20061;-51
2022/08/12 06:21:36;;;;;;;14.13;5.45;;;;;;;28.52;28.91;101193.31;5033470;28;20032;-64
2022/08/12 06:24:06;;;;;;;14.90;5.03;;;;;;;28.53;28.82;101192.44;5033569;28;20038;-64
2022/08/12 06:26:35;;;;;;;13.52;5.82;;;;;;;28.49;28.87;101192.44;5033357;28;20049;-64
2022/08/12 06:29:04;;;;;;;10.88;5.65;;;;;;;28.52;28.67;101188.91;5033564;28;20017;-44
2022/08/12 06:31:33;;;;;;;9.02;5.53;;;;;;;28.56;28.68;101193.31;5033326;28;20026;-45
2022/08/12 06:34:02;;;;;;;9.07;5.43;;;;;;;28.47;28.90;101193.31;5032513;28;20021;-45
2022/08/12 06:36:31;;;;;;;11.57;6.07;;;;;;;28.58;28.93;101195.94;5032940;28;20476;-44
2022/08/12 06:38:59;;;;;;;18.45;6.60;;;;;;;28.50;29.04;101191.56;5033068;28;20108;-50
2022/08/12 06:44:19;;;;;;;17.00;6.68;;;;;;;28.65;28.35;101200.31;5026447;28;20412;-45
2022/08/12 06:46:47;;;;;;;12.07;6.88;;;;;;;28.64;28.75;101201.19;5015375;28;20425;-46
2022/08/12 06:49:16;;;;;;;13.50;6.07;;;;;;;28.61;28.52;101196.81;5032616;28;20056;-46
2022/08/12 06:51:45;;;;;;;10.10;6.32;;;;;;;28.66;28.45;101200.31;5032884;28;20096;-64
2022/08/12 06:54:14;;;;;;;12.55;6.72;;;;;;;28.68;28.06;101196.78;5033210;28;20053;-46
2022/08/12 06:56:42;;;;;;;13.52;6.55;;;;;;;28.65;28.11;101190.63;5032921;28;20033;-54
2022/08/12 06:59:12;;;;;;;12.13;6.82;;;;;;;28.81;27.96;101193.25;5032942;28;20185;-45
2022/08/12 07:01:41;;;;;;;11.10;6.72;;;;;;;28.83;27.81;101196.75;5032613;28;20044;-44
2022/08/12 07:04:10;;;;;;;10.73;6.43;;;;;;;28.89;27.70;101199.38;5015323;28;20033;-63
2022/08/12 07:06:38;;;;;;;14.70;7.35;;;;;;;28.75;27.54;101161.59;5032412;28;20021;-46
2022/08/12 07:09:07;;;;;;;16.67;7.00;;;;;;;29.05;27.53;101199.31;5016031;28;20035;-50
2022/08/12 07:11:38;;;;;;;13.55;6.80;;;;;;;28.99;27.58;101189.66;5032607;28;20061;-45
2022/08/12 07:14:06;;;;;;;15.57;6.40;;;;;;;29.14;27.44;101201.03;5033157;28;20423;-44
2022/08/12 07:16:52;;;;;;;9.77;5.82;;;;;;;29.20;27.33;101190.44;5032591;28;20103;-64
2022/08/12 07:19:21;;;;;;;14.98;6.43;;;;;;;29.17;27.47;101204.53;5015063;28;20029;-44
2022/08/12 07:21:50;;;;;;;11.80;6.03;;;;;;;29.13;27.31;101186.94;5032664;28;20022;-50
2022/08/12 07:24:18;;;;;;;12.40;6.18;;;;;;;29.22;27.32;101193.94;5015170;28;20091;-64
2022/08/12 07:26:47;;;;;;;12.15;6.00;;;;;;;29.22;27.64;101204.50;5032463;28;20391;-44
2022/08/12 07:29:16;;;;;;;16.85;5.75;;;;;;;29.21;27.49;101208.91;5032809;28;20108;-46
2022/08/12 07:31:45;;;;;;;13.00;5.68;;;;;;;29.23;27.51;101206.25;5033116;28;20152;-51
2022/08/12 07:34:14;;;;;;;13.15;5.25;;;;;;;29.33;27.45;101202.69;5032701;28;20071;-45
2022/08/12 07:36:42;;;;;;;16.73;6.03;;;;;;;29.29;27.63;101205.38;5032628;28;20140;-51
2022/08/12 07:39:12;;;;;;;9.57;5.57;;;;;;;29.30;27.60;101212.38;5033093;28;20025;-44
2022/08/12 07:41:40;;;;;;;11.77;5.43;;;;;;;29.34;27.63;101207.09;5032345;28;20036;-45
2022/08/12 07:44:11;;;;;;;10.75;5.45;;;;;;;29.45;27.02;101209.69;5032706;28;20490;-46
2022/08/12 07:46:42;;;;;;;12.60;5.18;;;;;;;29.43;26.96;101210.56;5014965;28;20037;-63
2022/08/12 07:49:13;;;;;;;13.45;5.60;;;;;;;29.49;27.24;101205.25;5032727;28;20029;-45
2022/08/12 07:51:42;;;;;;;7.32;4.40;;;;;;;29.67;26.85;101212.19;5032261;28;20025;-47
2022/08/12 07:54:11;;;;;;;12.43;5.18;;;;;;;29.70;26.97;101209.50;5032092;28;20053;-45
2022/08/12 07:56:42;;;;;;;14.80;5.13;;;;;;;29.65;27.36;101206.91;5032324;28;20057;-48
2022/08/12 07:59:11;;;;;;;7.85;4.93;;;;;;;29.70;27.45;101212.16;5015007;28;20064;-64
2022/08/12 08:01:41;;;;;;;9.00;4.53;;;;;;;29.63;27.22;101210.44;5032437;28;20030;-48
2022/08/12 08:06:59;;;;;;;13.00;4.95;;;;;;;29.88;26.57;101203.19;5028371;28;20092;-47
2022/08/12 08:09:27;;;;;;;14.68;4.68;;;;;;;30.00;26.41;101207.53;5032728;28;20036;-46
2022/08/12 08:14:45;;;;;;;9.40;3.88;;;;;;;30.10;26.02;101203.03;5028760;28;20041;-65
2022/08/12 08:17:13;;;;;;;8.00;4.72;;;;;;;30.12;26.18;101203.91;5034216;28;20029;-47
2022/08/12 08:19:42;;;;;;;9.75;4.03;;;;;;;30.26;25.90;101198.50;5035688;28;20034;-47
2022/08/12 08:22:10;;;;;;;7.22;4.15;;;;;;;30.31;26.06;101191.38;5035703;28;20030;-66
2022/08/12 08:24:39;;;;;;;12.65;4.15;;;;;;;30.35;25.92;101195.75;5018189;28;20026;-45
2022/08/12 08:27:08;;;;;;;10.43;4.40;;;;;;;30.40;25.76;101196.56;5035413;28;20089;-44
2022/08/12 08:29:36;;;;;;;12.57;5.10;;;;;;;30.45;25.88;101201.81;5035415;28;20458;-48
2022/08/12 08:32:06;;;;;;;11.50;4.18;;;;;;;30.44;25.99;101195.66;5035477;28;20029;-61
2022/08/12 08:34:35;;;;;;;17.13;4.55;;;;;;;30.51;25.67;101201.75;5035658;28;20060;-65
2022/08/12 08:37:03;;;;;;;9.45;4.30;;;;;;;30.57;25.64;101203.50;5035754;28;20029;-46
2022/08/12 08:39:32;;;;;;;9.23;4.40;;;;;;;30.56;25.64;101204.38;5035637;28;20171;-49
2022/08/12 08:42:43;;;;;;;9.05;3.90;;;;;;;30.61;25.72;101199.91;5035421;28;20402;-46
2022/08/12 08:44:48;;;;;;;8.25;3.83;;;;;;;30.75;25.35;101199.72;5032150;28;20068;-45
2022/08/12 08:47:16;;;;;;;7.65;3.65;;;;;;;30.78;25.02;101194.41;5035353;28;20028;-45
2022/08/12 08:49:45;;;;;;;4.95;3.50;;;;;;;30.83;25.09;101194.34;5034988;28;20032;-47
2022/08/12 08:52:13;;;;;;;9.82;3.72;;;;;;;30.86;25.12;101189.00;5035675;28;20099;-45
2022/08/12 08:54:42;;;;;;;10.40;3.55;;;;;;;30.93;25.04;101190.69;5035152;28;20072;-46
2022/08/12 08:57:11;;;;;;;13.63;3.38;;;;;;;30.98;24.41;101174.72;5018042;28;20442;-44
2022/08/12 08:59:40;;;;;;;9.75;3.28;;;;;;;31.04;24.49;101196.72;5035168;28;20052;-45
2022/08/12 09:02:08;;;;;;;6.47;2.80;;;;;;;31.10;24.53;101179.84;5035217;28;20021;-46
2022/08/12 09:04:37;;;;;;;6.47;2.90;;;;;;;31.10;24.52;101177.22;5035265;28;20439;-45
2022/08/12 09:07:05;;;;;;;5.85;2.40;;;;;;;31.15;24.62;101171.88;5034635;28;20029;-45
2022/08/12 09:09:36;;;;;;;8.43;2.55;;;;;;;31.25;24.54;101184.09;5035345;28;20029;-45
2022/08/12 09:14:53;;;;;;;6.63;2.40;;;;;;;31.40;23.70;101176.81;5054718;28;20029;-45
2022/08/12 09:17:22;;;;;;;11.35;2.30;;;;;;;31.49;23.95;101174.00;5053408;28;20383;-62
2022/08/12 09:19:51;;;;;;;7.10;2.40;;;;;;;31.51;23.58;101180.16;5053057;28;20025;-64
2022/08/12 09:22:21;;;;;;;4.47;2.00;;;;;;;31.59;23.21;101174.75;5054615;28;20086;-44
2022/08/12 09:24:51;;;;;;;12.15;2.33;;;;;;;31.56;23.25;101166.84;5054747;28;20075;-46
2022/08/12 09:27:20;;;;;;;5.53;1.95;;;;;;;31.61;23.73;101172.94;5052829;28;20033;-58
2022/08/12 09:29:48;;;;;;;7.20;2.00;;;;;;;31.71;23.00;101171.91;5054487;28;20086;-54
2022/08/12 09:32:17;;;;;;;8.02;1.98;;;;;;;31.83;23.21;101165.53;5054669;28;20055;-46
2022/08/12 09:34:47;;;;;;;4.80;2.25;;;;;;;31.90;22.63;101171.59;5053392;28;20071;-45
2022/08/12 09:37:16;;;;;;;12.35;2.63;;;;;;;31.92;22.71;101162.75;5054303;28;20032;-47
2022/08/12 09:39:44;;;;;;;7.70;2.00;;;;;;;31.87;22.38;101148.66;5053210;28;20025;-45
2022/08/12 09:45:40;;;;;;;8.18;2.20;;;;;;;32.02;22.41;101165.22;5032890;28;20087;-46
2022/08/12 09:47:44;;;;;;;6.10;1.92;;;;;;;32.09;21.58;101161.56;5032348;28;20549;-49
2022/08/12 09:50:11;;;;;;;6.57;1.60;;;;;;;32.06;21.67;101161.59;5032855;28;20041;-46
2022/08/12 09:52:39;;;;;;;7.00;1.60;;;;;;;32.09;21.50;101153.59;5032207;28;20036;-47
2022/08/12 09:55:08;;;;;;;4.20;1.48;;;;;;;32.12;21.79;101151.75;5032892;28;20030;-46
2022/08/12 09:57:35;;;;;;;6.95;1.65;;;;;;;32.26;21.49;101153.28;5032727;28;20060;-47
2022/08/12 10:00:06;;;;;;;11.90;1.90;;;;;;;32.28;21.15;101154.13;5032693;28;20033;-52
2022/08/12 10:02:37;;;;;;;5.07;1.60;;;;;;;32.25;20.86;101160.38;5031941;28;20045;-46
2022/08/12 10:05:08;;;;;;;4.30;1.85;;;;;;;32.28;20.93;101149.69;5032443;28;20061;-62
2022/08/12 10:07:36;;;;;;;6.50;2.05;;;;;;;32.32;20.74;101150.53;5031782;28;20022;-46
2022/08/12 10:10:03;;;;;;;8.38;2.00;;;;;;;32.38;21.16;101145.06;5032570;28;20449;-46
2022/08/12 10:15:16;;;;;;;6.30;3.03;;;;;;;32.50;21.09;101140.44;5045763;28;20075;-50
2022/08/12 10:17:43;;;;;;;7.97;2.83;;;;;;;32.52;20.30;101146.56;5051611;28;20024;-46
2022/08/12 10:20:11;;;;;;;6.95;3.55;;;;;;;32.55;20.41;101143.84;5050841;28;20099;-65
2022/08/12 10:22:39;;;;;;;8.30;3.42;;;;;;;32.42;20.84;101141.47;5051554;28;20029;-66
2022/08/12 10:30:39;;;;;;;10.48;4.80;;;;;;;32.82;19.69;101131.81;5045476;28;20165;-45
2022/08/12 10:33:06;;;;;;;13.77;5.28;;;;;;;32.87;19.92;101124.63;5049758;28;20021;-49
2022/08/12 10:35:33;;;;;;;11.07;5.05;;;;;;;32.91;19.21;101122.75;5049055;28;20493;-63
2022/08/12 10:38:01;;;;;;;16.30;5.10;;;;;;;32.92;19.62;101119.19;5048471;28;20051;-56
2022/08/12 10:40:30;;;;;;;10.40;5.05;;;;;;;32.97;19.91;101114.66;5046678;28;20024;-49
2022/08/12 10:45:47;;;;;;;9.77;4.43;;;;;;;33.06;19.86;101113.56;5040711;28;20032;-46
2022/08/12 10:48:18;;;;;;;8.18;4.05;;;;;;;33.12;20.03;101113.41;5050066;28;20033;-46
2022/08/12 10:50:45;;;;;;;11.48;4.45;;;;;;;33.17;19.88;101116.84;5050275;28;20480;-46
2022/08/12 10:53:12;;;;;;;17.95;5.60;;;;;;;33.20;19.83;101117.69;5050548;28;20049;-50
2022/08/12 10:55:39;;;;;;;15.15;8.43;;;;;;;33.33;19.25;101113.81;5046837;28;20016;-61
2022/08/12 10:58:06;;;;;;;18.20;10.40;;;;;;;33.37;18.86;101118.16;5047984;28;20051;-61
2022/08/12 11:00:33;;;;;;;15.23;9.32;;;;;;;33.42;19.35;101110.06;5049723;28;20106;-54
2022/08/12 11:03:00;;;;;;;17.13;9.38;;;;;;;33.33;19.06;101108.47;5049447;28;20112;-47
2022/08/12 11:05:29;;;;;;;26.13;12.60;;;;;;;33.27;18.82;101114.81;5049275;28;20078;-64
2022/08/12 11:07:56;;;;;;;21.83;15.80;;;;;;;33.39;19.27;101121.66;5048676;28;20106;-47
2022/08/12 11:10:25;;;;;;;18.92;13.45;;;;;;;33.42;19.23;101104.75;5033007;28;20038;-55
2022/08/12 11:12:55;;;;;;;17.23;13.27;;;;;;;33.50;18.92;101099.25;5049541;28;20411;-64
2022/08/12 11:15:24;;;;;;;23.85;15.48;;;;;;;33.47;18.48;101109.03;5051914;28;20033;-62
2022/08/12 11:17:51;;;;;;;26.30;16.00;;;;;;;33.55;18.68;101090.22;5051050;28;20029;-45
2022/08/12 11:20:20;;;;;;;22.98;14.90;;;;;;;33.68;18.19;101095.22;5051211;28;20107;-46
2022/08/12 11:22:58;;;;;;;19.33;13.40;;;;;;;33.75;17.97;101104.78;5051693;28;20036;-51
2022/08/12 11:25:25;;;;;;;22.55;13.57;;;;;;;33.73;17.97;101095.97;5051939;28;20067;-47
2022/08/12 11:27:52;;;;;;;23.33;15.05;;;;;;;33.81;17.72;101101.97;5051296;28;20071;-48
2022/08/12 11:30:20;;;;;;;21.83;14.90;;;;;;;33.77;18.58;101097.66;5051632;28;20047;-46
2022/08/12 11:32:48;;;;;;;25.50;15.18;;;;;;;33.82;18.62;101092.19;5051202;28;20065;-61
2022/08/12 11:35:15;;;;;;;24.50;14.15;;;;;;;33.78;18.77;101080.78;5051824;28;20029;-50
2022/08/12 11:37:43;;;;;;;17.65;11.90;;;;;;;33.87;18.44;101088.47;5051255;28;20112;-64
2022/08/12 11:40:12;;;;;;;17.20;10.70;;;;;;;33.86;18.49;101089.41;5051320;28;20029;-60
2022/08/12 11:42:40;;;;;;;17.33;10.45;;;;;;;33.85;17.87;101086.78;5033339;28;20033;-46
2022/08/12 11:45:09;;;;;;;12.80;8.05;;;;;;;33.98;17.29;101084.72;5051183;28;20041;-52
2022/08/12 11:47:37;;;;;;;14.88;8.77;;;;;;;33.95;17.54;101076.81;5051041;28;20476;-46
2022/08/12 11:50:06;;;;;;;18.55;8.40;;;;;;;33.98;17.84;101074.91;5033320;28;20480;-47
2022/08/12 11:52:35;;;;;;;14.30;7.60;;;;;;;33.98;18.01;101060.75;5054823;28;20033;-62
2022/08/12 11:55:02;;;;;;;11.60;7.25;;;;;;;34.00;18.07;101067.78;5051415;28;20104;-61
2022/08/12 11:57:30;;;;;;;12.57;6.60;;;;;;;34.07;17.41;101058.72;5055099;28;20427;-49
2022/08/12 11:59:58;;;;;;;14.05;6.70;;;;;;;34.04;17.64;101061.44;5050645;28;20035;-55
2022/08/12 12:02:25;;;;;;;10.63;6.03;;;;;;;34.05;17.40;101063.19;5054687;28;20051;-46
2022/08/12 12:04:54;;;;;;;10.95;6.80;;;;;;;34.10;17.94;101057.75;5054826;28;20024;-47
2022/08/12 12:07:23;;;;;;;11.40;6.22;;;;;;;34.16;18.01;101057.56;5054247;28;20040;-59
2022/08/12 12:09:51;;;;;;;15.00;6.45;;;;;;;34.29;17.89;101076.69;5049838;28;20412;-49
2022/08/12 12:12:19;;;;;;;12.50;5.30;;;;;;;34.22;18.06;101064.50;5054229;28;20128;-56
2022/08/12 12:14:47;;;;;;;6.35;3.78;;;;;;;34.21;18.04;101063.63;5055058;28;20036;-63
2022/08/12 12:17:15;;;;;;;6.80;3.53;;;;;;;34.19;18.59;101061.91;5054637;28;20143;-56
2022/08/12 12:19:43;;;;;;;4.00;2.38;;;;;;;34.21;18.95;101068.06;5054015;28;20407;-46
2022/08/12 12:22:10;;;;;;;8.60;2.85;;;;;;;34.13;19.11;101064.75;5054868;28;20036;-58
2022/08/12 12:24:37;;;;;;;6.05;1.67;;;;;;;34.12;19.19;101055.00;5055060;28;20032;-61
2022/08/12 12:27:07;;;;;;;6.43;1.55;;;;;;;34.01;19.00;101055.31;5054414;28;20025;-47
2022/08/12 12:29:36;;;;;;;8.45;1.50;;;;;;;34.14;19.52;101066.50;5053796;28;20100;-45
2022/08/12 12:32:03;;;;;;;10.98;2.03;;;;;;;34.18;19.52;101057.50;5054512;28;20438;-52
2022/08/12 12:34:32;;;;;;;6.72;1.42;;;;;;;34.05;19.47;101062.31;5054512;28;20025;-63
2022/08/12 12:37:00;;;;;;;9.55;1.38;;;;;;;34.06;19.65;101056.97;5054543;28;20125;-64
2022/08/12 12:39:28;;;;;;;3.95;1.88;;;;;;;34.19;19.62;101056.59;5049720;28;20060;-46
2022/08/12 12:41:56;;;;;;;11.88;1.58;;;;;;;34.24;19.41;101057.34;5054203;28;20104;-49
2022/08/12 12:44:25;;;;;;;4.60;1.25;;;;;;;34.21;19.57;101054.75;5036298;28;20033;-63
2022/08/12 12:46:53;;;;;;;6.95;1.85;;;;;;;34.15;19.64;101050.50;5054325;28;20375;-46
2022/08/12 12:49:21;;;;;;;7.57;1.65;;;;;;;34.17;19.48;101051.31;5053551;28;20430;-52
2022/08/12 12:51:48;;;;;;;4.95;1.42;;;;;;;34.02;19.59;101038.44;5054075;28;20029;-64
2022/08/12 12:54:17;;;;;;;7.32;1.67;;;;;;;34.12;20.00;101055.00;5054188;28;20086;-56
2022/08/12 12:56:48;;;;;;;4.90;1.30;;;;;;;34.01;20.00;101045.56;5050265;28;20031;-61
2022/08/12 12:59:17;;;;;;;9.48;1.98;;;;;;;34.11;19.88;101051.50;5053902;28;20483;-64
2022/08/12 13:01:45;;;;;;;3.85;1.30;;;;;;;34.24;19.84;101054.69;5053301;28;20029;-52
2022/08/12 13:04:14;;;;;;;4.43;1.30;;;;;;;34.14;19.71;101047.88;5053744;28;20075;-49
2022/08/12 13:06:41;;;;;;;5.72;1.33;;;;;;;34.16;20.00;101054.00;5053904;28;20029;-45
2022/08/12 13:09:11;;;;;;;4.85;1.33;;;;;;;34.31;19.70;101039.41;5053570;28;20070;-50
2022/08/12 13:11:39;;;;;;;5.47;1.30;;;;;;;34.28;19.81;101034.16;5053589;28;20045;-56
2022/08/12 13:14:07;;;;;;;9.32;1.45;;;;;;;34.04;20.03;101032.16;5050267;28;20022;-46
2022/08/12 13:16:36;;;;;;;2.90;1.30;;;;;;;34.09;19.82;101048.00;5048155;28;20554;-49
2022/08/12 13:19:03;;;;;;;7.55;1.90;;;;;;;34.07;19.94;101036.53;5052037;28;20059;-46